createdAt,value
2022-09-12T00:14:04.026Z,95
2022-09-12T00:44:07.000Z,95.0
2022-09-12T01:14:11.000Z,95.0
2022-09-12T01:44:12.000Z,95.0
2022-09-12T02:14:14.000Z,95.0
2022-09-12T02:44:14.174Z,95
2022-09-12T03:14:16.000Z,95.0
2022-09-12T03:44:18.100Z,95
2022-09-12T04:14:22.000Z,95.0
2022-09-12T04:44:24.000Z,95.0
2022-09-12T05:14:27.633Z,95
2022-09-12T05:44:37.673Z,95
2022-09-12T06:14:38.633Z,95
2022-09-12T06:44:41.000Z,95.0
2022-09-12T07:14:43.657Z,94
2022-09-12T07:44:46.000Z,91.0
2022-09-12T08:14:48.802Z,79
2022-09-12T08:44:49.000Z,76.0
2022-09-12T09:14:50.685Z,73
2022-09-12T09:44:54.000Z,65.0
2022-09-12T10:14:58.732Z,60
2022-09-12T10:45:00.000Z,59.0
2022-09-12T11:15:01.905Z,60
2022-09-12T11:45:05.000Z,56.0
2022-09-12T12:15:06.000Z,52.0
2022-09-12T12:45:11.000Z,46.0
2022-09-12T13:15:14.000Z,50.0
2022-09-12T13:45:18.000Z,49.0
2022-09-12T14:15:23.951Z,44
2022-09-12T14:45:34.000Z,51.0
2022-09-12T15:15:35.123Z,52
2022-09-12T15:45:40.119Z,61
2022-09-12T16:15:48.507Z,64
2022-09-12T16:45:54.000Z,71.0
2022-09-12T17:16:04.000Z,76.0
2022-09-12T17:46:06.000Z,79.0
2022-09-12T18:16:09.000Z,83.0
2022-09-12T18:46:10.000Z,86.0
2022-09-12T19:16:12.455Z,87
2022-09-12T19:46:16.420Z,89
2022-09-12T20:16:19.536Z,91
2022-09-12T20:46:24.000Z,91.0
2022-09-12T21:16:26.000Z,92.0
2022-09-12T21:46:29.570Z,92
2022-09-12T22:16:31.000Z,92.0
2022-09-12T22:46:34.356Z,94
2022-09-12T23:16:44.391Z,94
2022-09-12T23:46:45.000Z,94.0
